WetterOnline ( https://www.wetteronline.de )

Wetter aktuell Körbelitz

Aktuelles Wetter: Genthin (39m)

6-stündlich | Neueste Meldungen
Ortszeit Temperatur Wetter
Sa, 29.01. 1:00 3.3° C bedeckt
Fr, 28.01. 19:00 3.9° C bedeckt
Fr, 28.01. 13:00 6.2° C fast wolkenlos
Fr, 28.01. 7:00 4.3° C bedeckt
Fr, 28.01. 1:00 5.4° C bedeckt
Do, 27.01. 19:00 6.8° C bewölkt
Do, 27.01. 13:00 5.2° C bedeckt
Do, 27.01. 7:00 4.1° C bedeckt
Ortszeit Temperatur Wetter
Sa, 29.01. 3:00 3.7° C bewölkt
Sa, 29.01. 2:50 3.7° C bewölkt
Sa, 29.01. 2:40 3.7° C bewölkt
Sa, 29.01. 2:30 3.7° C bewölkt
Sa, 29.01. 2:20 3.7° C bewölkt
Sa, 29.01. 2:10 3.8° C leichter Regen
Sa, 29.01. 2:00 3.6° C leicht bewölkt
Sa, 29.01. 1:30 3.4° C bedeckt
Sa, 29.01. 1:00 3.3° C bedeckt
Sa, 29.01. 0:30 3.1° C bewölkt
Sa, 29.01. 0:00 3.1° C bedeckt
Ortszeit Relative Feuchte Sichtweite
Sa, 29.01. 1:00 79% 23 km
Fr, 28.01. 19:00 72% 29 km
Fr, 28.01. 13:00 60% 28 km
Fr, 28.01. 7:00 79% 12 km
Fr, 28.01. 1:00 70% 30 km
Do, 27.01. 19:00 82% 45 km
Do, 27.01. 13:00 84% 30 km
Do, 27.01. 7:00 80% 22 km
Ortszeit Relative Feuchte Sichtweite
Sa, 29.01. 3:00 77% 21 km
Sa, 29.01. 2:50 77% -
Sa, 29.01. 2:40 77% -
Sa, 29.01. 2:30 78% 23 km
Sa, 29.01. 2:20 78% -
Sa, 29.01. 2:10 75% -
Sa, 29.01. 2:00 77% 24 km
Sa, 29.01. 1:30 78% 26 km
Sa, 29.01. 1:00 79% 23 km
Sa, 29.01. 0:30 79% 24 km
Sa, 29.01. 0:00 78% 24 km
Ortszeit Niederschlagsmenge Niederschlagsart
Sa, 29.01. 1:00 0.0 l/m2 in 6 Std. -
Fr, 28.01. 19:00 0.0 l/m2 in 12 Std. -
Fr, 28.01. 13:00 0.0 l/m2 in 6 Std. -
Fr, 28.01. 7:00 0.6 l/m2 in 12 Std. Regen
Fr, 28.01. 1:00 0.6 l/m2 in 6 Std. Regen
Do, 27.01. 19:00 1 l/m2 in 12 Std. Regen
Do, 27.01. 13:00 0.1 l/m2 in 6 Std. Regen
Do, 27.01. 7:00 0.0 l/m2 in 12 Std. -
Ortszeit Niederschlagsmenge Niederschlagsart
Sa, 29.01. 3:00 0.1 l/m2 in 1 Std. Regen
Sa, 29.01. 2:50 keine Meldung -
Sa, 29.01. 2:40 keine Meldung -
Sa, 29.01. 2:30 0.1 l/m2 in 1 Std. Schneeregen
Sa, 29.01. 2:20 keine Meldung -
Sa, 29.01. 2:10 keine Meldung -
Sa, 29.01. 2:00 0.0 l/m2 in 1 Std. -
Sa, 29.01. 1:30 0.0 l/m2 in 1 Std. -
Sa, 29.01. 1:00 0.0 l/m2 in 1 Std. -
Sa, 29.01. 0:30 0.0 l/m2 in 1 Std. -
Sa, 29.01. 0:00 0.0 l/m2 in 1 Std. -
Ortszeit Stärke Spitze Richtung
km/h Bft. km/h Grad Sektor
Sa, 29.01. 1:00 11 2 25 220° SW
Fr, 28.01. 19:00 13 3 41 280° W
Fr, 28.01. 13:00 26 4 48 300° NW
Fr, 28.01. 7:00 25 4 68 300° NW
Fr, 28.01. 1:00 28 4 57 290° W
Do, 27.01. 19:00 18 3 40 270° W
Do, 27.01. 13:00 18 3 47 250° W
Do, 27.01. 7:00 17 3 43 240° SW
Ortszeit Stärke Spitze Richtung
km/h Bft. km/h Grad Sektor
Sa, 29.01. 3:00 11 2 22 210° SW
Sa, 29.01. 2:50 11 2 - 210° SW
Sa, 29.01. 2:40 11 2 - 210° SW
Sa, 29.01. 2:30 11 2 22 220° SW
Sa, 29.01. 2:20 11 2 - 220° SW
Sa, 29.01. 2:10 13 3 - 220° SW
Sa, 29.01. 2:00 11 2 22 210° SW
Sa, 29.01. 1:30 7 2 19 210° SW
Sa, 29.01. 1:00 11 2 18 220° SW
Sa, 29.01. 0:30 9 2 19 220° SW
Sa, 29.01. 0:00 7 2 14 220° SW
Ortszeit Untergrenze Bedeckung Gattung
total tief tief mittel hoch
Sa, 29.01. 1:00 900 m 8/8 8/8 - - -
Fr, 28.01. 19:00 4200 m 8/8 8/8 - - -
Fr, 28.01. 13:00 960 m 1/8 1/8 - - -
Fr, 28.01. 7:00 600 m 8/8 8/8 - - -
Fr, 28.01. 1:00 840 m 8/8 8/8 - - -
Do, 27.01. 19:00 600 m 7/8 7/8 - - -
Do, 27.01. 13:00 420 m 8/8 8/8 - - -
Do, 27.01. 7:00 540 m 8/8 8/8 - - -
Ortszeit Bedeckungsgrad in Achtel und Wolkenuntergrenze
Sa, 29.01. 3:00 2(1020m) 4(1500m) 7(1800m)
Sa, 29.01. 2:50 2(1020m) 4(1500m) 7(1800m)
Sa, 29.01. 2:40 7
Sa, 29.01. 2:30 2(810m) 7(1080m) 7(1290m)
Sa, 29.01. 2:20 2(810m) 7(1080m) 7(1290m)
Sa, 29.01. 2:10 6
Sa, 29.01. 2:00 4(1800m) 4(2100m)
Sa, 29.01. 1:30 4(900m) 7(1800m) 8(2400m)
Sa, 29.01. 1:00 2(900m) 8(2400m) 8(3600m)
Sa, 29.01. 0:30 7(2400m) 8(3900m) 8(4800m)
Sa, 29.01. 0:00 8(2400m) 8(4500m)
Ortszeit Luftdruck NN (hPa) Tendenz (hPa in 3 Std.)
Sa, 29.01. 1:00 1028 - 2,2
Fr, 28.01. 19:00 1030 + 1,4
Fr, 28.01. 13:00 1027 + 2,1
Fr, 28.01. 7:00 1021 + 2,9
Fr, 28.01. 1:00 1016 + 1,3
Do, 27.01. 19:00 1014 - 0,4
Do, 27.01. 13:00 1016 - 1,5
Do, 27.01. 7:00 1019 - 2,2
Ortszeit Luftdruck NN (hPa) Tendenz (hPa in 3 Std.)
Sa, 29.01. 3:00 1026 - 2,7
Sa, 29.01. 2:50 1026 keine Meldung
Sa, 29.01. 2:40 1026 keine Meldung
Sa, 29.01. 2:30 1026 - 2,8
Sa, 29.01. 2:20 1026 keine Meldung
Sa, 29.01. 2:10 1026 keine Meldung
Sa, 29.01. 2:00 1027 - 2,9
Sa, 29.01. 1:30 1027 - 2,2
Sa, 29.01. 1:00 1028 - 2,2
Sa, 29.01. 0:30 1028 - 1,8
Sa, 29.01. 0:00 1028 - 1,9
Ortszeit Schneehöhe (cm)
Sa, 29.01. 1:00 0
Fr, 28.01. 19:00 0
Fr, 28.01. 13:00 0
Fr, 28.01. 7:00 0
Fr, 28.01. 1:00 0
Do, 27.01. 19:00 0
Do, 27.01. 13:00 0
Do, 27.01. 7:00 0
Ortszeit Schneehöhe (cm)
Sa, 29.01. 3:00 0
Sa, 29.01. 2:50 0
Sa, 29.01. 2:40 0
Sa, 29.01. 2:30 0
Sa, 29.01. 2:20 0
Sa, 29.01. 2:10 0
Sa, 29.01. 2:00 0
Sa, 29.01. 1:30 0
Sa, 29.01. 1:00 0
Sa, 29.01. 0:30 0
Sa, 29.01. 0:00 0
Link zu dieser Seite / Seite empfehlen

Das Wetter in ...